Time;durP1;ratioP1;P1;durP2;ratioP2;P2;SDS_P1;SDS_P2;PMS_P1;PMS_P2;Temp;Humidity;BMP_temperature;BMP_pressure;BME280_temperature;BME280_humidity;BME280_pressure;Samples;Min_cycle;Max_cycle;Signal;HPM_P1;HPM_P2
2022/11/21 13:01:29;;;;;;;33.65;5.30;;;;;;;15.53;100.00;151556.00;1770592;79;21076;-66
2022/11/21 13:04:01;;;;;;;39.33;5.00;;;;;;;15.46;100.00;151539.06;1784986;79;21458;-67
2022/11/21 13:06:33;;;;;;;31.15;5.12;;;;;;;15.43;100.00;151531.25;1737058;82;21033;-67
2022/11/21 13:09:01;;;;;;;37.53;5.42;;;;;;;15.40;100.00;151523.44;1731070;82;21024;-66
2022/11/21 13:11:59;;;;;;;34.98;5.00;;;;;;;15.38;100.00;151518.23;1731193;82;21021;-66
2022/11/21 13:14:35;;;;;;;32.00;5.10;;;;;;;15.35;100.00;151510.38;1732360;82;21298;-66
2022/11/21 13:17:34;;;;;;;35.78;4.60;;;;;;;15.33;100.00;151505.19;1720390;82;21047;-66
2022/11/21 13:20:27;;;;;;;31.82;5.83;;;;;;;15.28;100.00;151493.50;1720717;83;20978;-65
2022/11/21 13:22:58;;;;;;;34.48;5.50;;;;;;;15.26;100.00;151486.97;1720979;83;21485;-65
2022/11/21 13:25:42;;;;;;;24.82;4.92;;;;;;;15.23;100.00;151479.16;1720980;83;20951;-68
2022/11/21 13:28:22;;;;;;;22.27;5.28;;;;;;;15.20;100.00;151471.36;1721473;83;21419;-65
2022/11/21 13:30:52;;;;;;;25.75;5.22;;;;;;;15.18;100.00;151468.75;1721060;83;21002;-65
2022/11/21 13:33:40;;;;;;;28.52;5.35;;;;;;;15.15;100.00;151460.95;1720942;83;21134;-62
2022/11/21 13:36:31;;;;;;;32.53;5.97;;;;;;;15.14;100.00;151458.34;1721122;83;21050;-63
2022/11/21 13:39:03;;;;;;;28.73;4.90;;;;;;;15.12;100.00;151453.09;1721119;83;20926;-66
2022/11/21 13:44:39;;;;;;;34.13;6.72;;;;;;;15.04;100.00;151432.28;1721083;83;20955;-65
2022/11/21 13:47:27;;;;;;;30.32;6.05;;;;;;;15.00;100.00;151421.88;1721133;83;21003;-64
2022/11/21 13:50:28;;;;;;;28.98;6.12;;;;;;;14.96;100.00;151411.48;1721259;83;21048;-65
2022/11/21 13:53:16;;;;;;;37.35;5.42;;;;;;;14.93;100.00;151403.67;1721216;83;20979;-62
2022/11/21 13:56:13;;;;;;;36.83;6.22;;;;;;;14.92;100.00;151401.03;1720944;83;21462;-65
2022/11/21 13:59:15;;;;;;;37.28;6.40;;;;;;;14.90;100.00;151397.16;1721274;83;20962;-63
2022/11/21 14:02:23;;;;;;;33.55;5.62;;;;;;;14.87;100.00;151389.34;1712923;83;21451;-65
2022/11/21 14:05:19;;;;;;;39.30;6.40;;;;;;;14.85;100.00;151384.14;1700869;83;20990;-64
2022/11/21 14:07:47;;;;;;;27.45;6.25;;;;;;;14.81;100.00;151375.02;1720525;83;20943;-66
2022/11/21 14:10:32;;;;;;;33.30;6.05;;;;;;;14.78;100.00;151365.89;1721143;83;21975;-66
2022/11/21 14:12:59;;;;;;;38.13;6.05;;;;;;;14.76;100.00;151362.02;1720860;83;20993;-67
2022/11/21 14:15:41;;;;;;;31.23;6.47;;;;;;;14.73;100.00;151354.22;1720970;83;20887;-66
2022/11/21 14:18:21;;;;;;;28.80;5.70;;;;;;;14.71;100.00;151349.00;1720985;83;21026;-67
2022/11/21 14:20:56;;;;;;;35.33;5.95;;;;;;;14.69;100.00;151343.72;1720712;83;21003;-67
2022/11/21 14:23:25;;;;;;;41.60;6.67;;;;;;;14.65;100.00;151333.31;1721094;83;21144;-68
2022/11/21 14:26:05;;;;;;;33.88;6.85;;;;;;;14.60;100.00;151322.91;1720899;83;20975;-66
2022/11/21 14:28:33;;;;;;;36.58;6.90;;;;;;;14.56;100.00;151311.19;1721155;83;21036;-65
2022/11/21 14:31:07;;;;;;;41.18;7.35;;;;;;;14.50;100.00;151296.91;1720891;83;20966;-64
2022/11/21 14:33:37;;;;;;;33.20;6.45;;;;;;;14.45;100.00;151283.84;1720827;83;21328;-64
2022/11/21 14:36:17;;;;;;;47.95;7.40;;;;;;;14.39;100.00;151269.58;1720908;83;21519;-64
2022/11/21 14:38:50;;;;;;;29.55;7.20;;;;;;;14.33;100.00;151255.25;1720993;83;21042;-64
2022/11/21 14:41:28;;;;;;;31.12;6.12;;;;;;;14.28;100.00;151240.92;1721053;83;20942;-65
2022/11/21 14:44:03;;;;;;;37.50;7.12;;;;;;;14.21;100.00;151224.00;1721178;83;20967;-66
2022/11/21 14:46:37;;;;;;;50.25;6.95;;;;;;;14.15;100.00;151208.41;1721351;83;20994;-66
2022/11/21 14:49:24;;;;;;;34.85;7.25;;;;;;;14.10;100.00;151195.41;1721108;83;21424;-64
2022/11/21 14:52:13;;;;;;;43.23;7.15;;;;;;;14.04;100.00;151182.41;1721319;83;20946;-64
2022/11/21 14:55:00;;;;;;;45.40;8.40;;;;;;;14.00;100.00;151171.97;1721104;83;21046;-64
2022/11/21 14:57:33;;;;;;;38.75;7.30;;;;;;;13.94;100.00;151156.38;1721229;83;21120;-64
2022/11/21 15:00:02;;;;;;;39.40;6.78;;;;;;;13.89;100.00;151143.38;1721134;83;21510;-62
2022/11/21 15:02:30;;;;;;;41.02;7.15;;;;;;;13.86;100.00;151135.58;1721090;82;21980;-64
2022/11/21 15:05:07;;;;;;;44.88;7.72;;;;;;;13.83;100.00;151127.77;1677688;83;21101;-64
2022/11/21 15:07:43;;;;;;;46.33;8.30;;;;;;;13.80;100.00;151119.92;1721256;83;21493;-67
2022/11/21 15:10:17;;;;;;;38.88;6.72;;;;;;;13.78;100.00;151116.06;1720904;83;20995;-64
2022/11/21 15:13:00;;;;;;;38.15;7.53;;;;;;;13.79;100.00;151118.66;1721352;83;20942;-65
2022/11/21 15:15:36;;;;;;;33.08;6.75;;;;;;;13.79;100.00;151117.33;1721013;83;21886;-65
2022/11/21 15:18:06;;;;;;;34.50;6.12;;;;;;;13.81;100.00;151122.53;1720912;83;21621;-66
2022/11/21 15:20:33;;;;;;;48.42;6.60;;;;;;;13.83;100.00;151127.77;1721096;83;20987;-66
2022/11/21 15:23:01;;;;;;;32.83;7.97;;;;;;;13.83;100.00;151129.05;1721039;83;20978;-65
2022/11/21 15:25:35;;;;;;;35.60;7.37;;;;;;;13.84;100.00;151130.38;1721226;83;20887;-63
2022/11/21 15:28:08;;;;;;;26.10;7.58;;;;;;;13.82;100.00;151125.17;1720021;83;21433;-63
2022/11/21 15:30:36;;;;;;;19.27;7.72;;;;;;;13.80;100.00;151119.92;1721250;83;20950;-63
2022/11/21 15:33:16;;;;;;;17.52;7.87;;;;;;;13.73;100.00;151104.34;1721111;83;20978;-66
2022/11/21 15:35:53;;;;;;;11.97;5.95;;;;;;;13.60;100.00;151070.55;1721184;83;20993;-65
2022/11/21 15:38:43;;;;;;;9.30;5.50;;;;;;;13.42;100.00;151026.28;1721223;83;21045;-64
2022/11/21 15:41:15;;;;;;;9.13;5.15;;;;;;;13.15;100.00;150958.67;1721275;83;21795;-63
2022/11/21 15:43:54;;;;;;;8.08;5.28;;;;;;;12.79;100.00;150867.66;1721133;83;21416;-64
2022/11/21 15:46:24;;;;;;;9.88;4.90;;;;;;;12.55;100.00;150806.56;1721464;83;20970;-63
2022/11/21 15:48:57;;;;;;;8.73;4.42;;;;;;;12.32;100.00;150749.39;1721131;83;21025;-63
2022/11/21 15:51:26;;;;;;;7.55;4.42;;;;;;;12.14;100.00;150703.94;1721191;83;21017;-63
2022/11/21 15:53:53;;;;;;;12.40;4.78;;;;;;;11.98;100.00;150663.63;1721169;83;21248;-64
2022/11/21 15:56:21;;;;;;;8.65;5.33;;;;;;;11.86;100.00;150633.75;1721089;83;21025;-65
2022/11/21 15:58:48;;;;;;;7.10;4.17;;;;;;;11.75;100.00;150607.75;1721260;83;20966;-64
2022/11/21 16:01:26;;;;;;;8.40;4.37;;;;;;;11.63;100.00;150576.61;1721160;83;21058;-65
2022/11/21 16:03:56;;;;;;;11.68;4.72;;;;;;;11.48;100.00;150538.91;1721132;83;21046;-63
2022/11/21 16:06:23;;;;;;;9.65;4.90;;;;;;;11.28;100.00;150488.28;1721078;83;21214;-63
2022/11/21 16:08:51;;;;;;;8.73;5.03;;;;;;;10.97;100.00;150410.42;1721002;83;20931;-63
2022/11/21 16:11:32;;;;;;;10.18;5.20;;;;;;;10.64;100.00;150327.33;1721309;83;20934;-63
2022/11/21 16:14:01;;;;;;;10.13;5.42;;;;;;;10.39;100.00;150265.00;1720405;83;20994;-65
2022/11/21 16:16:31;;;;;;;8.75;4.55;;;;;;;10.22;100.00;150222.19;1721084;83;20958;-64
2022/11/21 16:18:58;;;;;;;7.12;4.50;;;;;;;10.04;100.00;150178.08;1721366;83;21889;-64
2022/11/21 16:21:26;;;;;;;6.40;4.20;;;;;;;9.84;100.00;150127.52;1721068;83;20950;-65
2022/11/21 16:23:54;;;;;;;5.45;3.67;;;;;;;9.67;100.00;150086.00;1721176;83;20995;-64
2022/11/21 16:26:26;;;;;;;6.75;3.42;;;;;;;9.53;100.00;150051.00;1720920;83;21047;-65
2022/11/21 16:28:49;;;;;;;7.30;3.17;;;;;;;9.35;100.00;150005.58;1720632;83;21034;-64
2022/11/21 16:31:20;;;;;;;5.87;3.30;;;;;;;9.19;100.00;149964.12;1677546;83;22029;-65
2022/11/21 16:33:46;;;;;;;5.45;3.02;;;;;;;9.09;100.00;149940.77;1720603;83;21377;-66
2022/11/21 16:36:18;;;;;;;4.97;2.95;;;;;;;9.03;100.00;149925.23;1721178;83;21082;-65
2022/11/21 16:38:45;;;;;;;6.08;2.80;;;;;;;9.01;100.00;149920.05;1701738;83;21018;-66
2022/11/21 16:41:12;;;;;;;4.35;2.77;;;;;;;8.95;100.00;149905.78;1721141;83;20954;-62
2022/11/21 16:43:48;;;;;;;3.12;2.37;;;;;;;8.87;100.00;149886.33;1721054;83;21602;-64
2022/11/21 16:46:15;;;;;;;4.15;2.20;;;;;;;8.81;100.00;149870.80;1721192;83;21057;-64
2022/11/21 16:48:42;;;;;;;4.10;2.12;;;;;;;8.71;100.00;149844.84;1721196;83;21435;-66
2022/11/21 16:51:19;;;;;;;4.10;2.40;;;;;;;8.54;100.00;149803.42;1721273;83;21530;-65
2022/11/21 16:53:48;;;;;;;3.90;2.60;;;;;;;8.48;100.00;149786.52;1721135;83;21026;-64
2022/11/21 16:56:16;;;;;;;4.90;2.52;;;;;;;8.41;100.00;149770.98;1721086;83;21139;-66
2022/11/21 16:58:43;;;;;;;6.50;2.98;;;;;;;8.37;100.00;149760.58;1721072;83;21038;-62
2022/11/21 17:01:12;;;;;;;7.05;2.83;;;;;;;8.34;100.00;149751.53;1721155;83;21029;-62
2022/11/21 17:03:40;;;;;;;7.62;3.12;;;;;;;8.29;100.00;149741.19;1721524;83;21464;-64
2022/11/21 17:06:09;;;;;;;5.90;2.85;;;;;;;8.25;100.00;149729.52;1721031;83;21038;-67
2022/11/21 17:08:36;;;;;;;7.70;3.37;;;;;;;8.14;100.00;149702.31;1721018;83;21012;-63
2022/11/21 17:11:15;;;;;;;6.62;3.10;;;;;;;8.00;100.00;149668.61;1721099;83;20881;-63
2022/11/21 17:13:43;;;;;;;6.42;3.12;;;;;;;7.93;100.00;149650.50;1721488;83;21011;-64
2022/11/21 17:16:11;;;;;;;5.37;2.98;;;;;;;7.85;100.00;149629.80;1721013;83;20985;-65
2022/11/21 17:18:59;;;;;;;5.72;3.90;;;;;;;7.74;100.00;149603.86;1704397;83;26864;-64
2022/11/21 17:21:26;;;;;;;7.83;3.77;;;;;;;7.52;100.00;149546.91;1718718;82;21279;-62
2022/11/21 17:23:53;;;;;;;5.58;3.55;;;;;;;7.33;100.00;149500.28;1714173;83;20999;-65
2022/11/21 17:26:28;;;;;;;8.30;4.12;;;;;;;7.21;100.00;149470.52;1714064;82;20903;-65
2022/11/21 17:28:58;;;;;;;9.48;4.28;;;;;;;7.10;100.00;149443.33;1714267;83;21027;-65
2022/11/21 17:31:25;;;;;;;8.60;4.70;;;;;;;7.02;100.00;149423.91;1713998;82;21009;-64
2022/11/21 17:33:54;;;;;;;10.95;4.97;;;;;;;6.97;100.00;149410.97;1714222;83;21247;-65
2022/11/21 17:36:22;;;;;;;10.90;5.03;;;;;;;6.90;100.00;149391.56;1714206;83;20959;-64
2022/11/21 17:38:50;;;;;;;6.80;4.35;;;;;;;6.90;100.00;149391.56;1714295;83;21031;-64
2022/11/21 17:41:19;;;;;;;8.45;5.50;;;;;;;6.88;100.00;149388.97;1715388;83;20982;-66
2022/11/21 17:43:47;;;;;;;8.08;5.70;;;;;;;6.86;100.00;149383.80;1714155;82;20947;-66
2022/11/21 17:46:16;;;;;;;8.90;5.45;;;;;;;6.81;100.00;149370.88;1714226;83;21273;-64
2022/11/21 17:48:46;;;;;;;9.35;6.12;;;;;;;6.72;100.00;149347.55;1714035;83;20998;-64
2022/11/21 17:51:18;;;;;;;8.88;5.65;;;;;;;6.68;100.00;149338.53;1714210;83;21019;-65
2022/11/21 17:53:47;;;;;;;8.13;5.90;;;;;;;6.61;100.00;149319.11;1714210;82;20955;-64
2022/11/21 17:56:23;;;;;;;10.13;5.72;;;;;;;6.61;100.00;149319.11;1714173;82;21051;-65
2022/11/21 17:58:51;;;;;;;8.63;5.60;;;;;;;6.55;100.00;149306.19;1714231;83;21143;-66
2022/11/21 18:01:18;;;;;;;10.58;6.35;;;;;;;6.55;100.00;149306.19;1714163;82;20975;-65
2022/11/21 18:03:58;;;;;;;10.05;6.53;;;;;;;6.54;100.00;149302.28;1714172;82;21022;-62
2022/11/21 18:06:33;;;;;;;7.70;5.97;;;;;;;6.52;100.00;149298.44;1714314;83;20954;-64
2022/11/21 18:09:00;;;;;;;7.50;5.42;;;;;;;6.52;100.00;149297.11;1714220;82;21013;-64
2022/11/21 18:11:29;;;;;;;8.43;5.62;;;;;;;6.44;100.00;149279.02;1714306;83;22191;-63
2022/11/21 18:13:55;;;;;;;7.12;5.35;;;;;;;6.44;100.00;149279.02;1714408;83;21047;-63
2022/11/21 18:16:25;;;;;;;7.95;5.15;;;;;;;6.41;100.00;149269.94;1714086;83;20952;-63
2022/11/21 18:18:51;;;;;;;9.73;5.47;;;;;;;6.40;100.00;149267.36;1714431;82;20998;-64
2022/11/21 18:21:25;;;;;;;10.40;5.70;;;;;;;6.40;100.00;149267.36;1714134;82;21019;-64
2022/11/21 18:23:55;;;;;;;9.68;7.00;;;;;;;6.38;100.00;149263.45;1699633;83;39161;-62
2022/11/21 18:26:27;;;;;;;7.35;5.90;;;;;;;6.41;100.00;149271.27;1714336;83;20892;-64
2022/11/21 18:28:56;;;;;;;10.72;5.83;;;;;;;6.44;100.00;149277.69;1714188;82;20967;-64
2022/11/21 18:31:25;;;;;;;8.43;5.75;;;;;;;6.43;100.00;149275.11;1714301;83;20976;-64
2022/11/21 18:33:58;;;;;;;9.95;5.45;;;;;;;6.40;100.00;149267.36;1714210;83;21141;-64
2022/11/21 18:36:27;;;;;;;8.48;5.47;;;;;;;6.40;100.00;149267.36;1714370;83;21147;-64
2022/11/21 18:38:54;;;;;;;8.90;5.47;;;;;;;6.40;100.00;149267.36;1714148;83;21007;-65
2022/11/21 18:41:23;;;;;;;8.78;5.50;;;;;;;6.36;100.00;149257.02;1714331;82;20983;-62
2022/11/21 18:43:53;;;;;;;9.70;5.47;;;;;;;6.30;100.00;149244.09;1714174;82;20979;-63
2022/11/21 18:46:21;;;;;;;9.05;5.75;;;;;;;6.27;100.00;149236.30;1714309;83;21366;-65
2022/11/21 18:48:51;;;;;;;8.40;5.83;;;;;;;6.24;100.00;149228.53;1714167;83;21295;-64
2022/11/21 18:51:24;;;;;;;11.40;6.00;;;;;;;6.25;100.00;149229.84;1714170;83;21011;-62
2022/11/21 18:53:58;;;;;;;10.75;6.65;;;;;;;6.23;100.00;149225.95;1714460;83;20979;-63
2022/11/21 18:56:25;;;;;;;12.40;7.72;;;;;;;6.22;100.00;149223.37;1714208;83;21533;-62
2022/11/21 18:58:53;;;;;;;8.28;5.90;;;;;;;6.21;100.00;149219.52;1714041;82;21124;-63
2022/11/21 19:01:24;;;;;;;9.05;4.95;;;;;;;6.21;100.00;149220.78;1714244;83;21858;-62
2022/11/21 19:03:52;;;;;;;6.75;4.80;;;;;;;6.21;100.00;149220.78;1714176;83;21415;-64
2022/11/21 19:06:20;;;;;;;6.83;4.20;;;;;;;6.21;100.00;149220.78;1714330;83;20999;-66
2022/11/21 19:08:52;;;;;;;6.62;3.80;;;;;;;6.21;100.00;149220.78;1714340;82;20995;-64
2022/11/21 19:11:18;;;;;;;7.65;3.37;;;;;;;6.25;100.00;149231.13;1713348;82;20959;-63
2022/11/21 19:13:46;;;;;;;5.75;3.30;;;;;;;6.26;100.00;149233.70;1714310;82;22274;-62
2022/11/21 19:16:19;;;;;;;5.37;3.17;;;;;;;6.26;100.00;149233.70;1714252;83;20939;-64
2022/11/21 19:18:46;;;;;;;3.35;2.67;;;;;;;6.29;100.00;149241.47;1714353;83;21424;-62
2022/11/21 19:21:14;;;;;;;5.65;2.95;;;;;;;6.29;100.00;149241.47;1714465;83;20999;-63
2022/11/21 19:23:42;;;;;;;4.83;3.10;;;;;;;6.32;100.00;149246.69;1714353;82;20856;-63
2022/11/21 19:26:15;;;;;;;6.50;3.12;;;;;;;6.34;100.00;149251.84;1714230;83;21906;-63
2022/11/21 19:28:43;;;;;;;6.33;3.30;;;;;;;6.35;100.00;149254.44;1714051;82;21531;-62
2022/11/21 19:31:11;;;;;;;9.23;3.60;;;;;;;6.35;100.00;149255.70;1714221;82;21137;-64
2022/11/21 19:33:38;;;;;;;4.95;3.33;;;;;;;6.36;100.00;149257.02;1714478;83;20939;-63
2022/11/21 19:36:16;;;;;;;5.00;2.90;;;;;;;6.35;100.00;149254.44;1714149;82;21002;-63
2022/11/21 19:38:44;;;;;;;5.78;3.30;;;;;;;6.32;100.00;149246.69;1714297;83;21857;-63
2022/11/21 19:41:16;;;;;;;3.30;2.40;;;;;;;6.28;100.00;149238.88;1713897;82;21037;-63
2022/11/21 19:43:47;;;;;;;4.58;2.83;;;;;;;6.25;100.00;149229.84;1714272;83;20852;-63
2022/11/21 19:46:18;;;;;;;2.87;2.30;;;;;;;6.22;100.00;149222.09;1714389;83;20919;-64
2022/11/21 19:48:48;;;;;;;3.58;2.50;;;;;;;6.21;100.00;149220.78;1714188;82;21091;-63
2022/11/21 19:51:14;;;;;;;2.50;2.00;;;;;;;6.15;100.00;149206.55;1714178;83;21316;-62
2022/11/21 19:53:41;;;;;;;4.33;1.85;;;;;;;6.14;100.00;149203.97;1714191;83;20900;-62
2022/11/21 19:56:17;;;;;;;3.75;2.22;;;;;;;6.10;100.00;149192.36;1714311;83;21404;-64
2022/11/21 19:58:45;;;;;;;2.55;1.80;;;;;;;6.05;100.00;149179.39;1714435;83;21042;-63
2022/11/21 20:01:17;;;;;;;2.55;2.00;;;;;;;5.99;100.00;149165.16;1714398;83;21015;-62
2022/11/21 20:03:46;;;;;;;2.85;2.00;;;;;;;5.92;100.00;149148.33;1714145;83;21226;-62
2022/11/21 20:06:30;;;;;;;3.52;2.30;;;;;;;5.88;100.00;149138.00;1714386;83;21006;-65
2022/11/21 20:08:59;;;;;;;4.50;2.87;;;;;;;5.87;100.00;149135.41;1714313;83;20919;-63
2022/11/21 20:11:27;;;;;;;3.55;2.95;;;;;;;5.87;100.00;149135.41;1714525;83;20959;-63
2022/11/21 20:13:54;;;;;;;4.12;3.27;;;;;;;5.87;100.00;149135.41;1714443;83;21060;-63
2022/11/21 20:16:36;;;;;;;4.28;3.22;;;;;;;5.86;100.00;149134.09;1714244;83;21237;-62
2022/11/21 20:19:06;;;;;;;5.83;4.15;;;;;;;5.85;100.00;149130.19;1714104;83;20952;-64
2022/11/21 20:21:33;;;;;;;4.30;3.67;;;;;;;5.83;100.00;149125.02;1714337;83;21055;-63
2022/11/21 20:24:00;;;;;;;6.60;4.15;;;;;;;5.77;100.00;149109.52;1714199;82;21027;-63
2022/11/21 20:26:28;;;;;;;4.92;4.05;;;;;;;5.69;100.00;149091.44;1714421;82;21114;-63
2022/11/21 20:28:55;;;;;;;5.05;3.98;;;;;;;5.59;100.00;149065.55;1714217;83;21245;-63
2022/11/21 20:31:28;;;;;;;5.87;4.35;;;;;;;5.52;100.00;149047.47;1691952;83;21022;-62
2022/11/21 20:34:03;;;;;;;5.20;4.17;;;;;;;5.44;100.00;149029.39;1714309;83;21035;-62
2022/11/21 20:36:32;;;;;;;5.72;4.10;;;;;;;5.36;100.00;149007.41;1714296;82;20990;-63
2022/11/21 20:39:14;;;;;;;5.65;4.25;;;;;;;5.27;100.00;148985.44;1714350;82;21002;-63
2022/11/21 20:41:41;;;;;;;7.25;4.45;;;;;;;5.21;100.00;148969.94;1714291;83;21238;-64
2022/11/21 20:44:15;;;;;;;6.25;4.65;;;;;;;5.15;100.00;148956.97;1714227;83;20956;-64
2022/11/21 20:46:43;;;;;;;6.40;4.70;;;;;;;5.09;100.00;148941.47;1709905;83;21404;-63
2022/11/21 20:49:11;;;;;;;6.20;4.80;;;;;;;5.05;100.00;148929.84;1714182;82;21028;-63
2022/11/21 20:51:39;;;;;;;8.48;4.35;;;;;;;5.02;99.95;148923.41;1714355;83;21014;-63
2022/11/21 20:54:06;;;;;;;6.30;4.33;;;;;;;5.00;100.00;148918.23;1714186;83;21245;-63
2022/11/21 20:56:35;;;;;;;6.75;4.40;;;;;;;4.98;100.00;148913.06;1714272;83;21471;-64
2022/11/21 20:59:05;;;;;;;5.65;4.47;;;;;;;4.98;100.00;148914.34;1714215;83;21012;-64
2022/11/21 21:01:31;;;;;;;6.53;4.40;;;;;;;4.96;100.00;148907.86;1714270;82;20963;-64
2022/11/21 21:03:58;;;;;;;6.42;5.00;;;;;;;4.94;100.00;148904.02;1714224;83;21058;-64
2022/11/21 21:06:25;;;;;;;5.33;4.40;;;;;;;4.93;100.00;148901.44;1714244;83;21729;-63
2022/11/21 21:08:52;;;;;;;4.95;4.15;;;;;;;4.92;100.00;148897.53;1714064;82;20999;-63
2022/11/21 21:11:24;;;;;;;6.03;4.58;;;;;;;4.88;99.68;148889.78;1714216;82;21432;-63
2022/11/21 21:13:50;;;;;;;6.28;4.70;;;;;;;4.85;99.55;148882.05;1714219;83;21011;-63
2022/11/21 21:16:20;;;;;;;6.22;4.67;;;;;;;4.82;99.25;148874.30;1714342;82;21006;-63
2022/11/21 21:18:50;;;;;;;5.47;4.37;;;;;;;4.77;99.25;148861.39;1714084;83;20990;-66
2022/11/21 21:21:22;;;;;;;7.10;4.80;;;;;;;4.75;99.50;148854.91;1714196;83;20899;-64
2022/11/21 21:23:58;;;;;;;5.87;4.45;;;;;;;4.71;98.98;148845.84;1714206;83;21435;-64
2022/11/21 21:26:28;;;;;;;5.80;4.17;;;;;;;4.65;98.64;148830.36;1714417;83;21494;-65
2022/11/21 21:28:57;;;;;;;7.05;4.65;;;;;;;4.64;99.04;148829.09;1713431;83;21094;-65
2022/11/21 21:31:24;;;;;;;8.18;4.42;;;;;;;4.67;99.48;148835.53;1714115;83;21940;-64
2022/11/21 21:33:51;;;;;;;5.33;4.17;;;;;;;4.69;99.31;148840.69;1714152;82;21006;-66
2022/11/21 21:36:22;;;;;;;5.72;4.40;;;;;;;4.66;98.48;148832.94;1714237;82;21492;-62
2022/11/21 21:38:53;;;;;;;5.80;4.60;;;;;;;4.65;98.50;148830.36;1714224;82;20982;-62
2022/11/21 21:41:20;;;;;;;6.10;4.70;;;;;;;4.63;98.37;148826.47;1714333;82;20912;-62
2022/11/21 21:43:52;;;;;;;6.50;4.60;;;;;;;4.61;98.18;148820.03;1713997;82;21147;-66
2022/11/21 21:46:23;;;;;;;5.12;4.10;;;;;;;4.62;98.22;148822.63;1713970;83;21427;-66
2022/11/21 21:48:55;;;;;;;5.12;4.20;;;;;;;4.61;98.23;148820.03;1714010;83;21436;-63
2022/11/21 21:51:24;;;;;;;5.95;4.50;;;;;;;4.65;98.39;148830.36;1714123;83;20962;-65
2022/11/21 21:53:52;;;;;;;4.80;4.05;;;;;;;4.67;97.96;148835.53;1714228;83;21023;-63
2022/11/21 21:56:20;;;;;;;4.55;3.75;;;;;;;4.66;97.65;148832.94;1713959;83;21136;-63
2022/11/21 21:58:48;;;;;;;5.05;3.98;;;;;;;4.65;97.27;148830.36;1714178;83;20958;-65
2022/11/21 22:01:27;;;;;;;4.72;3.70;;;;;;;4.58;96.15;148814.88;1714050;83;21014;-64
2022/11/21 22:03:57;;;;;;;6.45;4.20;;;;;;;4.42;94.77;148774.84;1714003;82;21052;-64
2022/11/21 22:06:24;;;;;;;5.00;4.28;;;;;;;4.22;94.31;148724.44;1714119;83;20950;-64
2022/11/21 22:08:51;;;;;;;6.55;3.92;;;;;;;4.07;94.27;148685.69;1714112;82;21750;-64
2022/11/21 22:11:26;;;;;;;5.00;4.12;;;;;;;3.97;94.88;148661.16;1714034;83;21415;-62
2022/11/21 22:13:56;;;;;;;4.33;3.52;;;;;;;3.88;95.10;148639.25;1714212;83;21007;-64
2022/11/21 22:16:23;;;;;;;4.97;3.62;;;;;;;3.84;95.65;148628.88;1714244;82;20987;-64
2022/11/21 22:18:51;;;;;;;4.85;3.55;;;;;;;3.85;96.48;148631.45;1714338;83;20911;-64
2022/11/21 22:21:33;;;;;;;4.37;3.77;;;;;;;3.86;96.53;148634.05;1714064;83;21249;-62
2022/11/21 22:24:04;;;;;;;4.50;3.87;;;;;;;3.89;97.01;148641.83;1714102;83;21455;-62
2022/11/21 22:26:32;;;;;;;4.67;3.90;;;;;;;3.93;97.43;148652.16;1714337;83;20955;-64
2022/11/21 22:28:59;;;;;;;5.28;3.90;;;;;;;3.94;96.94;148654.73;1714253;83;20966;-64
2022/11/21 22:31:29;;;;;;;4.70;3.62;;;;;;;3.88;96.61;148639.25;1714184;82;21464;-64
2022/11/21 22:33:55;;;;;;;4.40;3.58;;;;;;;3.83;96.61;148627.61;1715700;83;21993;-64
2022/11/21 22:36:22;;;;;;;3.87;3.17;;;;;;;3.84;97.15;148628.88;1713962;83;20978;-64
2022/11/21 22:38:54;;;;;;;5.28;3.42;;;;;;;3.89;97.73;148641.83;1714091;82;20935;-64
2022/11/21 22:41:23;;;;;;;4.55;3.58;;;;;;;3.95;97.90;148657.31;1713957;82;21381;-65
2022/11/21 22:43:55;;;;;;;4.35;3.30;;;;;;;4.02;97.67;148674.11;1714040;83;21046;-65
2022/11/21 22:46:23;;;;;;;4.10;3.22;;;;;;;4.03;96.99;148675.37;1714097;83;21089;-63
2022/11/21 22:48:50;;;;;;;4.55;3.35;;;;;;;4.06;97.10;148683.11;1714010;83;21004;-63
2022/11/21 22:51:20;;;;;;;5.58;3.37;;;;;;;4.08;96.16;148689.58;1714167;83;20967;-63
2022/11/21 22:53:48;;;;;;;4.95;3.60;;;;;;;4.00;95.12;148670.20;1713670;83;21420;-63
2022/11/21 22:56:16;;;;;;;5.20;3.50;;;;;;;3.92;95.09;148649.56;1714098;82;21010;-63
2022/11/21 22:58:45;;;;;;;5.42;3.67;;;;;;;3.90;95.58;148644.41;1714210;83;20964;-63
2022/11/21 23:01:20;;;;;;;4.50;3.50;;;;;;;3.86;95.20;148634.05;1713980;83;21108;-63
2022/11/21 23:03:48;;;;;;;4.40;3.52;;;;;;;3.84;95.79;148630.19;1714145;83;20884;-62
2022/11/21 23:06:22;;;;;;;3.95;3.42;;;;;;;3.85;95.66;148631.45;1714150;82;20966;-62
2022/11/21 23:08:50;;;;;;;4.33;3.40;;;;;;;3.78;94.92;148613.41;1714074;82;21475;-62
2022/11/21 23:11:21;;;;;;;4.03;3.22;;;;;;;3.71;95.28;148597.92;1713921;82;22258;-62
2022/11/21 23:13:50;;;;;;;3.87;3.10;;;;;;;3.75;96.01;148605.66;1713980;83;21043;-62
2022/11/21 23:16:17;;;;;;;3.35;2.83;;;;;;;3.79;96.19;148615.98;1714163;83;20931;-62
2022/11/21 23:18:45;;;;;;;3.98;3.15;;;;;;;3.85;96.46;148632.78;1714085;83;21022;-62
2022/11/21 23:21:13;;;;;;;4.00;3.35;;;;;;;3.92;96.22;148649.56;1714212;83;20964;-66
2022/11/21 23:23:42;;;;;;;4.80;3.25;;;;;;;3.94;95.30;148653.41;1714075;83;22045;-65
2022/11/21 23:26:11;;;;;;;4.22;2.90;;;;;;;3.86;94.35;148634.05;1714031;82;20919;-64
2022/11/21 23:28:39;;;;;;;3.52;2.75;;;;;;;3.80;94.37;148618.56;1714241;83;21002;-63
2022/11/21 23:31:09;;;;;;;4.62;3.52;;;;;;;3.77;94.47;148610.81;1714128;83;20927;-62
2022/11/21 23:33:35;;;;;;;5.65;3.80;;;;;;;3.72;94.09;148599.19;1714197;83;21021;-64
2022/11/21 23:36:03;;;;;;;3.90;3.42;;;;;;;3.64;94.03;148579.81;1713997;83;21215;-64
2022/11/21 23:38:30;;;;;;;3.95;3.22;;;;;;;3.57;94.21;148561.77;1714128;83;20940;-64
2022/11/21 23:40:57;;;;;;;4.78;3.65;;;;;;;3.50;94.35;148544.97;1714042;83;20966;-64
2022/11/21 23:43:23;;;;;;;4.85;3.67;;;;;;;3.43;94.53;148528.23;1714069;83;21049;-64
2022/11/21 23:45:51;;;;;;;4.05;3.50;;;;;;;3.40;94.80;148520.45;1714193;83;20923;-63
2022/11/21 23:48:18;;;;;;;5.22;4.00;;;;;;;3.37;95.06;148511.45;1714213;83;21385;-62
2022/11/21 23:50:49;;;;;;;4.55;3.55;;;;;;;3.36;95.45;148510.14;1714082;83;21451;-64
2022/11/21 23:53:16;;;;;;;5.35;4.00;;;;;;;3.38;95.77;148514.03;1714396;83;21065;-64
2022/11/21 23:55:44;;;;;;;4.72;3.72;;;;;;;3.38;95.96;148515.30;1714254;83;20947;-64
2022/11/21 23:58:12;;;;;;;4.55;3.47;;;;;;;3.39;95.64;148517.88;1714257;83;21019;-64
